Terminal Aerodrome Forecast
Issued by NWS

Home | Current Version | Previous Version | Text Only | Print | Product List | Glossary On
Versions: 1 2 3 4 5 6 7 8 9 10 11 12 13
000
FTUS45 KRIW 230500
TAFCPR
TAF
KCPR 230524Z 2306/2406 05010KT P6SM SKC
     FM231000 VRB05KT P6SM SKC
     FM231400 21007KT P6SM SKC
     FM231900 23014G22KT P6SM SCT150
     FM240100 22010KT P6SM SCT150=

USA.gov is the U.S. government's official web portal to all federal, state and local government web resources and services.